sensor_id;sensor_type;location;lat;lon;timestamp;P1;durP1;ratioP1;P2;durP2;ratioP2
19436;SDS011;9854;50.968;4.168;2022-12-07T00:01:07;17.93;;;15.03;;
19436;SDS011;9854;50.968;4.168;2022-12-07T00:03:35;21.10;;;16.17;;
19436;SDS011;9854;50.968;4.168;2022-12-07T00:06:03;19.87;;;15.10;;
19436;SDS011;9854;50.968;4.168;2022-12-07T00:08:30;24.50;;;14.80;;
19436;SDS011;9854;50.968;4.168;2022-12-07T00:11:06;19.10;;;14.93;;
19436;SDS011;9854;50.968;4.168;2022-12-07T00:13:34;17.20;;;14.77;;
19436;SDS011;9854;50.968;4.168;2022-12-07T00:16:04;16.13;;;13.83;;
19436;SDS011;9854;50.968;4.168;2022-12-07T00:18:34;16.80;;;13.97;;
19436;SDS011;9854;50.968;4.168;2022-12-07T00:21:04;16.13;;;13.50;;
19436;SDS011;9854;50.968;4.168;2022-12-07T00:23:31;15.93;;;14.17;;
19436;SDS011;9854;50.968;4.168;2022-12-07T00:26:18;20.60;;;14.00;;
19436;SDS011;9854;50.968;4.168;2022-12-07T00:28:49;20.43;;;14.13;;
19436;SDS011;9854;50.968;4.168;2022-12-07T00:31:17;20.47;;;14.10;;
19436;SDS011;9854;50.968;4.168;2022-12-07T00:33:44;14.63;;;13.13;;
19436;SDS011;9854;50.968;4.168;2022-12-07T00:36:14;17.43;;;13.20;;
19436;SDS011;9854;50.968;4.168;2022-12-07T00:38:42;17.83;;;14.20;;
19436;SDS011;9854;50.968;4.168;2022-12-07T00:41:12;20.63;;;14.13;;
19436;SDS011;9854;50.968;4.168;2022-12-07T00:43:40;15.70;;;13.03;;
19436;SDS011;9854;50.968;4.168;2022-12-07T00:46:06;18.13;;;13.57;;
19436;SDS011;9854;50.968;4.168;2022-12-07T00:48:32;19.53;;;14.30;;
19436;SDS011;9854;50.968;4.168;2022-12-07T00:50:58;16.67;;;13.10;;
19436;SDS011;9854;50.968;4.168;2022-12-07T00:53:24;15.40;;;13.83;;
19436;SDS011;9854;50.968;4.168;2022-12-07T00:55:49;16.70;;;13.27;;
19436;SDS011;9854;50.968;4.168;2022-12-07T00:58:15;15.27;;;13.30;;
19436;SDS011;9854;50.968;4.168;2022-12-07T01:00:41;19.40;;;12.93;;
19436;SDS011;9854;50.968;4.168;2022-12-07T01:03:08;15.80;;;13.03;;
19436;SDS011;9854;50.968;4.168;2022-12-07T01:05:36;17.33;;;13.30;;
19436;SDS011;9854;50.968;4.168;2022-12-07T01:08:02;14.57;;;12.50;;
19436;SDS011;9854;50.968;4.168;2022-12-07T01:10:28;14.63;;;12.13;;
19436;SDS011;9854;50.968;4.168;2022-12-07T01:12:55;18.57;;;12.80;;
19436;SDS011;9854;50.968;4.168;2022-12-07T01:15:20;17.03;;;12.23;;
19436;SDS011;9854;50.968;4.168;2022-12-07T01:17:46;14.30;;;11.07;;
19436;SDS011;9854;50.968;4.168;2022-12-07T01:20:12;13.73;;;11.57;;
19436;SDS011;9854;50.968;4.168;2022-12-07T01:22:38;19.93;;;12.30;;
19436;SDS011;9854;50.968;4.168;2022-12-07T01:25:06;14.20;;;11.57;;
19436;SDS011;9854;50.968;4.168;2022-12-07T01:27:33;14.07;;;11.00;;
19436;SDS011;9854;50.968;4.168;2022-12-07T01:29:59;15.30;;;11.47;;
19436;SDS011;9854;50.968;4.168;2022-12-07T01:32:26;12.73;;;11.43;;
19436;SDS011;9854;50.968;4.168;2022-12-07T01:34:51;14.17;;;10.90;;
19436;SDS011;9854;50.968;4.168;2022-12-07T01:37:17;12.07;;;10.83;;
19436;SDS011;9854;50.968;4.168;2022-12-07T01:39:43;13.03;;;11.60;;
19436;SDS011;9854;50.968;4.168;2022-12-07T01:42:12;13.13;;;10.70;;
19436;SDS011;9854;50.968;4.168;2022-12-07T01:47:41;14.00;;;11.10;;
19436;SDS011;9854;50.968;4.168;2022-12-07T01:50:09;13.00;;;11.50;;
19436;SDS011;9854;50.968;4.168;2022-12-07T01:52:35;15.77;;;11.30;;
19436;SDS011;9854;50.968;4.168;2022-12-07T01:55:05;18.60;;;10.67;;
19436;SDS011;9854;50.968;4.168;2022-12-07T01:57:34;15.77;;;10.67;;
19436;SDS011;9854;50.968;4.168;2022-12-07T02:00:02;12.43;;;10.33;;
19436;SDS011;9854;50.968;4.168;2022-12-07T02:02:31;12.97;;;10.27;;
19436;SDS011;9854;50.968;4.168;2022-12-07T02:05:01;11.60;;;10.20;;
19436;SDS011;9854;50.968;4.168;2022-12-07T02:07:28;13.37;;;10.73;;
19436;SDS011;9854;50.968;4.168;2022-12-07T02:09:56;14.10;;;10.37;;
19436;SDS011;9854;50.968;4.168;2022-12-07T02:12:21;16.87;;;11.43;;
19436;SDS011;9854;50.968;4.168;2022-12-07T02:14:49;14.53;;;10.63;;
19436;SDS011;9854;50.968;4.168;2022-12-07T02:25:53;14.97;;;9.87;;
19436;SDS011;9854;50.968;4.168;2022-12-07T02:30:58;13.67;;;10.17;;
19436;SDS011;9854;50.968;4.168;2022-12-07T02:33:36;14.63;;;9.90;;
19436;SDS011;9854;50.968;4.168;2022-12-07T02:36:06;16.70;;;12.10;;
19436;SDS011;9854;50.968;4.168;2022-12-07T02:38:55;13.90;;;10.17;;
19436;SDS011;9854;50.968;4.168;2022-12-07T02:41:29;13.73;;;10.37;;
19436;SDS011;9854;50.968;4.168;2022-12-07T02:44:06;18.53;;;10.93;;
19436;SDS011;9854;50.968;4.168;2022-12-07T02:46:46;13.33;;;9.20;;
19436;SDS011;9854;50.968;4.168;2022-12-07T02:49:24;12.00;;;9.77;;
19436;SDS011;9854;50.968;4.168;2022-12-07T02:51:51;20.30;;;12.17;;
19436;SDS011;9854;50.968;4.168;2022-12-07T02:54:18;11.97;;;8.90;;
19436;SDS011;9854;50.968;4.168;2022-12-07T02:56:50;12.57;;;9.20;;
19436;SDS011;9854;50.968;4.168;2022-12-07T03:13:11;19.87;;;11.70;;
19436;SDS011;9854;50.968;4.168;2022-12-07T03:18:38;11.67;;;9.10;;
19436;SDS011;9854;50.968;4.168;2022-12-07T03:21:11;12.87;;;8.67;;
19436;SDS011;9854;50.968;4.168;2022-12-07T03:23:42;13.77;;;9.13;;
19436;SDS011;9854;50.968;4.168;2022-12-07T03:26:12;13.77;;;8.77;;
19436;SDS011;9854;50.968;4.168;2022-12-07T03:28:41;13.17;;;9.10;;
19436;SDS011;9854;50.968;4.168;2022-12-07T03:31:12;14.40;;;9.10;;
19436;SDS011;9854;50.968;4.168;2022-12-07T03:33:56;10.07;;;7.83;;
19436;SDS011;9854;50.968;4.168;2022-12-07T03:36:40;13.00;;;9.10;;
19436;SDS011;9854;50.968;4.168;2022-12-07T03:42:05;17.07;;;9.33;;
19436;SDS011;9854;50.968;4.168;2022-12-07T03:44:33;13.13;;;9.67;;
19436;SDS011;9854;50.968;4.168;2022-12-07T03:47:01;15.33;;;9.50;;
19436;SDS011;9854;50.968;4.168;2022-12-07T03:49:32;12.00;;;8.57;;
19436;SDS011;9854;50.968;4.168;2022-12-07T03:57:44;16.77;;;12.07;;
19436;SDS011;9854;50.968;4.168;2022-12-07T04:00:11;15.10;;;12.77;;
19436;SDS011;9854;50.968;4.168;2022-12-07T04:02:38;14.30;;;11.87;;
19436;SDS011;9854;50.968;4.168;2022-12-07T04:05:05;12.93;;;11.43;;
19436;SDS011;9854;50.968;4.168;2022-12-07T04:07:31;12.07;;;10.73;;
19436;SDS011;9854;50.968;4.168;2022-12-07T04:09:56;20.20;;;10.93;;
19436;SDS011;9854;50.968;4.168;2022-12-07T04:12:22;12.87;;;10.60;;
19436;SDS011;9854;50.968;4.168;2022-12-07T04:14:48;19.00;;;11.27;;
19436;SDS011;9854;50.968;4.168;2022-12-07T04:17:14;13.33;;;10.87;;
19436;SDS011;9854;50.968;4.168;2022-12-07T04:19:40;15.57;;;10.10;;
19436;SDS011;9854;50.968;4.168;2022-12-07T04:22:05;12.70;;;9.70;;
19436;SDS011;9854;50.968;4.168;2022-12-07T04:24:32;13.13;;;10.07;;
19436;SDS011;9854;50.968;4.168;2022-12-07T04:26:58;19.03;;;13.20;;
19436;SDS011;9854;50.968;4.168;2022-12-07T04:29:24;20.07;;;12.23;;
19436;SDS011;9854;50.968;4.168;2022-12-07T04:31:51;16.23;;;10.60;;
19436;SDS011;9854;50.968;4.168;2022-12-07T04:34:17;14.73;;;11.57;;
19436;SDS011;9854;50.968;4.168;2022-12-07T04:36:43;18.67;;;11.93;;
19436;SDS011;9854;50.968;4.168;2022-12-07T04:39:23;14.47;;;12.30;;
19436;SDS011;9854;50.968;4.168;2022-12-07T04:41:55;16.30;;;11.40;;
19436;SDS011;9854;50.968;4.168;2022-12-07T04:44:22;72.63;;;23.90;;
19436;SDS011;9854;50.968;4.168;2022-12-07T04:46:49;18.70;;;13.23;;
19436;SDS011;9854;50.968;4.168;2022-12-07T04:49:15;18.13;;;12.67;;
19436;SDS011;9854;50.968;4.168;2022-12-07T04:51:41;19.70;;;13.53;;
19436;SDS011;9854;50.968;4.168;2022-12-07T04:54:07;26.67;;;18.30;;
19436;SDS011;9854;50.968;4.168;2022-12-07T04:56:33;21.73;;;15.47;;
19436;SDS011;9854;50.968;4.168;2022-12-07T04:59:00;21.73;;;16.93;;
19436;SDS011;9854;50.968;4.168;2022-12-07T05:01:26;28.20;;;17.70;;
19436;SDS011;9854;50.968;4.168;2022-12-07T05:03:52;20.77;;;15.30;;
19436;SDS011;9854;50.968;4.168;2022-12-07T05:06:18;23.53;;;16.63;;
19436;SDS011;9854;50.968;4.168;2022-12-07T05:08:44;23.83;;;15.70;;
19436;SDS011;9854;50.968;4.168;2022-12-07T05:11:10;25.17;;;14.37;;
19436;SDS011;9854;50.968;4.168;2022-12-07T05:14:02;19.77;;;13.57;;
19436;SDS011;9854;50.968;4.168;2022-12-07T05:16:30;20.13;;;13.93;;
19436;SDS011;9854;50.968;4.168;2022-12-07T05:18:56;20.37;;;13.40;;
19436;SDS011;9854;50.968;4.168;2022-12-07T05:21:22;23.27;;;15.20;;
19436;SDS011;9854;50.968;4.168;2022-12-07T05:23:47;23.83;;;16.00;;
19436;SDS011;9854;50.968;4.168;2022-12-07T05:26:13;22.03;;;15.10;;
19436;SDS011;9854;50.968;4.168;2022-12-07T05:28:39;16.42;;;14.35;;
19436;SDS011;9854;50.968;4.168;2022-12-07T05:31:04;15.50;;;12.60;;
19436;SDS011;9854;50.968;4.168;2022-12-07T05:33:30;19.00;;;12.53;;
19436;SDS011;9854;50.968;4.168;2022-12-07T05:35:56;19.40;;;13.23;;
19436;SDS011;9854;50.968;4.168;2022-12-07T05:38:21;17.27;;;12.13;;
19436;SDS011;9854;50.968;4.168;2022-12-07T05:40:47;16.30;;;11.97;;
19436;SDS011;9854;50.968;4.168;2022-12-07T05:43:12;16.23;;;10.60;;
19436;SDS011;9854;50.968;4.168;2022-12-07T05:45:38;16.60;;;10.50;;
19436;SDS011;9854;50.968;4.168;2022-12-07T05:48:04;13.53;;;9.60;;
19436;SDS011;9854;50.968;4.168;2022-12-07T05:50:30;13.87;;;9.77;;
19436;SDS011;9854;50.968;4.168;2022-12-07T05:52:55;17.37;;;10.53;;
19436;SDS011;9854;50.968;4.168;2022-12-07T05:55:21;12.90;;;9.65;;
19436;SDS011;9854;50.968;4.168;2022-12-07T05:57:46;12.17;;;8.87;;
19436;SDS011;9854;50.968;4.168;2022-12-07T06:00:31;17.13;;;9.40;;
19436;SDS011;9854;50.968;4.168;2022-12-07T06:02:57;16.27;;;9.23;;
19436;SDS011;9854;50.968;4.168;2022-12-07T06:05:22;13.63;;;9.13;;
19436;SDS011;9854;50.968;4.168;2022-12-07T06:07:48;15.13;;;8.93;;
19436;SDS011;9854;50.968;4.168;2022-12-07T06:10:14;11.57;;;9.20;;
19436;SDS011;9854;50.968;4.168;2022-12-07T06:12:40;14.87;;;8.97;;
19436;SDS011;9854;50.968;4.168;2022-12-07T06:15:08;12.70;;;9.70;;
19436;SDS011;9854;50.968;4.168;2022-12-07T06:17:34;14.00;;;9.60;;
19436;SDS011;9854;50.968;4.168;2022-12-07T06:20:01;13.20;;;9.50;;
19436;SDS011;9854;50.968;4.168;2022-12-07T06:22:27;14.60;;;9.50;;
19436;SDS011;9854;50.968;4.168;2022-12-07T06:24:52;12.30;;;9.10;;
19436;SDS011;9854;50.968;4.168;2022-12-07T06:27:18;9.90;;;8.93;;
19436;SDS011;9854;50.968;4.168;2022-12-07T06:29:43;11.60;;;8.60;;
19436;SDS011;9854;50.968;4.168;2022-12-07T06:32:09;10.70;;;9.23;;
19436;SDS011;9854;50.968;4.168;2022-12-07T06:34:35;17.37;;;9.37;;
19436;SDS011;9854;50.968;4.168;2022-12-07T06:37:00;12.07;;;7.93;;
19436;SDS011;9854;50.968;4.168;2022-12-07T06:39:27;17.53;;;9.90;;
19436;SDS011;9854;50.968;4.168;2022-12-07T06:41:53;14.40;;;9.47;;
19436;SDS011;9854;50.968;4.168;2022-12-07T06:44:20;12.50;;;9.90;;
19436;SDS011;9854;50.968;4.168;2022-12-07T06:46:46;15.00;;;9.10;;
19436;SDS011;9854;50.968;4.168;2022-12-07T06:49:13;11.47;;;9.63;;
19436;SDS011;9854;50.968;4.168;2022-12-07T06:51:38;15.40;;;10.17;;
19436;SDS011;9854;50.968;4.168;2022-12-07T06:54:09;21.97;;;19.67;;
19436;SDS011;9854;50.968;4.168;2022-12-07T06:56:36;14.80;;;9.63;;
19436;SDS011;9854;50.968;4.168;2022-12-07T06:59:02;15.40;;;9.47;;
19436;SDS011;9854;50.968;4.168;2022-12-07T07:01:28;16.13;;;9.47;;
19436;SDS011;9854;50.968;4.168;2022-12-07T07:03:53;15.17;;;10.27;;
19436;SDS011;9854;50.968;4.168;2022-12-07T07:06:19;12.43;;;8.77;;
19436;SDS011;9854;50.968;4.168;2022-12-07T07:08:45;13.53;;;9.20;;
19436;SDS011;9854;50.968;4.168;2022-12-07T07:11:10;13.13;;;8.73;;
19436;SDS011;9854;50.968;4.168;2022-12-07T07:13:36;22.70;;;14.37;;
19436;SDS011;9854;50.968;4.168;2022-12-07T07:16:02;15.47;;;11.10;;
19436;SDS011;9854;50.968;4.168;2022-12-07T07:18:28;10.07;;;9.00;;
19436;SDS011;9854;50.968;4.168;2022-12-07T07:20:54;19.13;;;9.37;;
19436;SDS011;9854;50.968;4.168;2022-12-07T07:23:20;10.87;;;8.60;;
19436;SDS011;9854;50.968;4.168;2022-12-07T07:25:46;16.77;;;9.93;;
19436;SDS011;9854;50.968;4.168;2022-12-07T07:28:13;10.50;;;8.63;;
19436;SDS011;9854;50.968;4.168;2022-12-07T07:30:39;16.37;;;10.07;;
19436;SDS011;9854;50.968;4.168;2022-12-07T07:33:04;15.20;;;10.13;;
19436;SDS011;9854;50.968;4.168;2022-12-07T07:35:31;16.83;;;11.50;;
19436;SDS011;9854;50.968;4.168;2022-12-07T07:37:58;15.70;;;10.70;;
19436;SDS011;9854;50.968;4.168;2022-12-07T07:40:24;21.07;;;11.43;;
19436;SDS011;9854;50.968;4.168;2022-12-07T07:42:50;13.43;;;11.13;;
19436;SDS011;9854;50.968;4.168;2022-12-07T07:45:18;17.60;;;12.35;;
19436;SDS011;9854;50.968;4.168;2022-12-07T07:47:44;18.67;;;12.17;;
19436;SDS011;9854;50.968;4.168;2022-12-07T07:50:10;17.73;;;11.70;;
19436;SDS011;9854;50.968;4.168;2022-12-07T07:52:36;15.13;;;10.23;;
19436;SDS011;9854;50.968;4.168;2022-12-07T07:55:01;19.90;;;10.67;;
19436;SDS011;9854;50.968;4.168;2022-12-07T07:57:27;21.73;;;10.70;;
19436;SDS011;9854;50.968;4.168;2022-12-07T07:59:53;15.40;;;11.00;;
19436;SDS011;9854;50.968;4.168;2022-12-07T08:02:19;18.07;;;11.13;;
19436;SDS011;9854;50.968;4.168;2022-12-07T08:04:46;18.17;;;11.07;;
19436;SDS011;9854;50.968;4.168;2022-12-07T08:07:11;22.43;;;10.87;;
19436;SDS011;9854;50.968;4.168;2022-12-07T08:09:38;15.57;;;10.53;;
19436;SDS011;9854;50.968;4.168;2022-12-07T08:12:04;15.40;;;9.60;;
19436;SDS011;9854;50.968;4.168;2022-12-07T08:14:30;19.37;;;11.27;;
19436;SDS011;9854;50.968;4.168;2022-12-07T08:16:56;20.27;;;12.40;;
19436;SDS011;9854;50.968;4.168;2022-12-07T08:19:21;24.63;;;13.47;;
19436;SDS011;9854;50.968;4.168;2022-12-07T08:21:47;13.93;;;10.43;;
19436;SDS011;9854;50.968;4.168;2022-12-07T08:24:12;17.17;;;10.37;;
19436;SDS011;9854;50.968;4.168;2022-12-07T08:26:39;13.97;;;10.03;;
19436;SDS011;9854;50.968;4.168;2022-12-07T08:29:04;17.27;;;10.43;;
19436;SDS011;9854;50.968;4.168;2022-12-07T08:31:30;17.23;;;10.10;;
19436;SDS011;9854;50.968;4.168;2022-12-07T08:33:56;14.40;;;9.33;;
19436;SDS011;9854;50.968;4.168;2022-12-07T08:36:22;14.60;;;10.83;;
19436;SDS011;9854;50.968;4.168;2022-12-07T08:38:48;14.57;;;9.93;;
19436;SDS011;9854;50.968;4.168;2022-12-07T08:41:14;15.43;;;10.47;;
19436;SDS011;9854;50.968;4.168;2022-12-07T08:43:40;15.83;;;9.93;;
19436;SDS011;9854;50.968;4.168;2022-12-07T08:46:08;15.23;;;9.87;;
19436;SDS011;9854;50.968;4.168;2022-12-07T08:48:39;16.57;;;9.60;;
19436;SDS011;9854;50.968;4.168;2022-12-07T08:51:08;20.50;;;10.73;;
19436;SDS011;9854;50.968;4.168;2022-12-07T08:53:35;16.30;;;10.00;;
19436;SDS011;9854;50.968;4.168;2022-12-07T08:56:02;17.60;;;9.67;;
19436;SDS011;9854;50.968;4.168;2022-12-07T08:58:29;13.60;;;8.97;;
19436;SDS011;9854;50.968;4.168;2022-12-07T09:00:55;18.27;;;10.50;;
19436;SDS011;9854;50.968;4.168;2022-12-07T09:03:20;17.17;;;9.70;;
19436;SDS011;9854;50.968;4.168;2022-12-07T09:05:46;13.47;;;9.23;;
19436;SDS011;9854;50.968;4.168;2022-12-07T09:08:12;13.63;;;9.03;;
19436;SDS011;9854;50.968;4.168;2022-12-07T09:10:38;17.90;;;9.80;;
19436;SDS011;9854;50.968;4.168;2022-12-07T09:13:03;12.63;;;9.13;;
19436;SDS011;9854;50.968;4.168;2022-12-07T09:15:29;13.53;;;9.53;;
19436;SDS011;9854;50.968;4.168;2022-12-07T09:17:56;15.40;;;9.30;;
19436;SDS011;9854;50.968;4.168;2022-12-07T09:20:22;16.73;;;9.73;;
19436;SDS011;9854;50.968;4.168;2022-12-07T09:22:47;13.77;;;10.07;;
19436;SDS011;9854;50.968;4.168;2022-12-07T09:25:13;11.90;;;8.97;;
19436;SDS011;9854;50.968;4.168;2022-12-07T09:27:39;13.77;;;9.33;;
19436;SDS011;9854;50.968;4.168;2022-12-07T09:30:04;12.90;;;9.20;;
19436;SDS011;9854;50.968;4.168;2022-12-07T09:32:31;19.27;;;9.03;;
19436;SDS011;9854;50.968;4.168;2022-12-07T09:34:56;15.70;;;8.87;;
19436;SDS011;9854;50.968;4.168;2022-12-07T09:37:22;15.37;;;8.77;;
19436;SDS011;9854;50.968;4.168;2022-12-07T09:39:48;16.87;;;9.10;;
19436;SDS011;9854;50.968;4.168;2022-12-07T09:42:19;18.83;;;9.10;;
19436;SDS011;9854;50.968;4.168;2022-12-07T09:44:52;15.13;;;7.90;;
19436;SDS011;9854;50.968;4.168;2022-12-07T09:47:18;13.33;;;8.20;;
19436;SDS011;9854;50.968;4.168;2022-12-07T09:49:44;13.80;;;7.83;;
19436;SDS011;9854;50.968;4.168;2022-12-07T09:52:20;9.47;;;6.60;;
19436;SDS011;9854;50.968;4.168;2022-12-07T09:54:51;14.63;;;6.90;;
19436;SDS011;9854;50.968;4.168;2022-12-07T09:57:27;10.70;;;6.90;;
19436;SDS011;9854;50.968;4.168;2022-12-07T10:00:00;10.57;;;6.80;;
19436;SDS011;9854;50.968;4.168;2022-12-07T10:02:38;12.00;;;6.87;;
19436;SDS011;9854;50.968;4.168;2022-12-07T10:05:14;20.97;;;14.20;;
19436;SDS011;9854;50.968;4.168;2022-12-07T10:07:43;13.70;;;7.47;;
19436;SDS011;9854;50.968;4.168;2022-12-07T10:10:12;13.93;;;6.90;;
19436;SDS011;9854;50.968;4.168;2022-12-07T10:15:42;11.50;;;6.70;;
19436;SDS011;9854;50.968;4.168;2022-12-07T10:21:05;11.93;;;6.57;;
19436;SDS011;9854;50.968;4.168;2022-12-07T10:23:36;13.20;;;6.67;;
19436;SDS011;9854;50.968;4.168;2022-12-07T10:26:21;11.27;;;6.50;;
19436;SDS011;9854;50.968;4.168;2022-12-07T10:28:49;14.43;;;6.63;;
19436;SDS011;9854;50.968;4.168;2022-12-07T10:31:16;9.67;;;6.50;;
19436;SDS011;9854;50.968;4.168;2022-12-07T10:33:54;10.30;;;7.07;;
19436;SDS011;9854;50.968;4.168;2022-12-07T10:44:25;9.23;;;4.80;;
19436;SDS011;9854;50.968;4.168;2022-12-07T10:50:19;15.40;;;6.87;;
19436;SDS011;9854;50.968;4.168;2022-12-07T11:06:33;14.27;;;7.00;;
19436;SDS011;9854;50.968;4.168;2022-12-07T11:09:26;10.77;;;5.50;;
19436;SDS011;9854;50.968;4.168;2022-12-07T11:14:44;12.23;;;5.93;;
19436;SDS011;9854;50.968;4.168;2022-12-07T11:17:32;14.53;;;7.57;;
19436;SDS011;9854;50.968;4.168;2022-12-07T11:25:45;12.73;;;8.37;;
19436;SDS011;9854;50.968;4.168;2022-12-07T11:28:26;9.40;;;5.20;;
19436;SDS011;9854;50.968;4.168;2022-12-07T11:33:38;9.87;;;3.50;;
19436;SDS011;9854;50.968;4.168;2022-12-07T11:36:43;10.03;;;2.93;;
19436;SDS011;9854;50.968;4.168;2022-12-07T11:41:42;7.73;;;3.50;;
19436;SDS011;9854;50.968;4.168;2022-12-07T11:44:23;6.63;;;3.63;;
19436;SDS011;9854;50.968;4.168;2022-12-07T11:46:54;5.93;;;3.17;;
19436;SDS011;9854;50.968;4.168;2022-12-07T11:52:02;6.27;;;3.00;;
19436;SDS011;9854;50.968;4.168;2022-12-07T11:54:32;11.93;;;7.10;;
19436;SDS011;9854;50.968;4.168;2022-12-07T11:57:09;7.40;;;3.90;;
19436;SDS011;9854;50.968;4.168;2022-12-07T11:59:45;5.03;;;2.80;;
19436;SDS011;9854;50.968;4.168;2022-12-07T12:02:18;5.07;;;3.37;;
19436;SDS011;9854;50.968;4.168;2022-12-07T12:07:28;5.77;;;2.33;;
19436;SDS011;9854;50.968;4.168;2022-12-07T12:09:55;5.97;;;2.30;;
19436;SDS011;9854;50.968;4.168;2022-12-07T12:12:50;5.93;;;2.20;;
19436;SDS011;9854;50.968;4.168;2022-12-07T12:21:32;4.50;;;3.40;;
19436;SDS011;9854;50.968;4.168;2022-12-07T12:24:09;10.77;;;3.10;;
19436;SDS011;9854;50.968;4.168;2022-12-07T12:26:36;9.33;;;3.10;;
19436;SDS011;9854;50.968;4.168;2022-12-07T12:29:04;7.60;;;3.03;;
19436;SDS011;9854;50.968;4.168;2022-12-07T12:31:35;8.03;;;3.10;;
19436;SDS011;9854;50.968;4.168;2022-12-07T12:37:02;6.50;;;3.20;;
19436;SDS011;9854;50.968;4.168;2022-12-07T12:40:59;6.83;;;2.77;;
19436;SDS011;9854;50.968;4.168;2022-12-07T12:42:55;6.03;;;3.00;;
19436;SDS011;9854;50.968;4.168;2022-12-07T12:45:22;5.87;;;2.50;;
19436;SDS011;9854;50.968;4.168;2022-12-07T12:54:05;8.37;;;3.00;;
19436;SDS011;9854;50.968;4.168;2022-12-07T12:59:29;9.17;;;2.77;;
19436;SDS011;9854;50.968;4.168;2022-12-07T13:04:37;9.67;;;2.90;;
19436;SDS011;9854;50.968;4.168;2022-12-07T13:10:25;16.80;;;7.60;;
19436;SDS011;9854;50.968;4.168;2022-12-07T13:18:04;8.07;;;4.33;;
19436;SDS011;9854;50.968;4.168;2022-12-07T13:20:53;11.33;;;10.23;;
19436;SDS011;9854;50.968;4.168;2022-12-07T13:28:21;5.37;;;1.90;;
19436;SDS011;9854;50.968;4.168;2022-12-07T13:33:44;4.40;;;2.23;;
19436;SDS011;9854;50.968;4.168;2022-12-07T13:36:17;6.43;;;2.30;;
19436;SDS011;9854;50.968;4.168;2022-12-07T13:38:49;4.77;;;2.27;;
19436;SDS011;9854;50.968;4.168;2022-12-07T13:41:17;9.30;;;2.70;;
19436;SDS011;9854;50.968;4.168;2022-12-07T13:46:19;5.90;;;2.60;;
19436;SDS011;9854;50.968;4.168;2022-12-07T13:48:50;4.13;;;2.40;;
19436;SDS011;9854;50.968;4.168;2022-12-07T13:51:23;9.37;;;3.77;;
19436;SDS011;9854;50.968;4.168;2022-12-07T13:54:01;7.97;;;4.30;;
19436;SDS011;9854;50.968;4.168;2022-12-07T13:56:34;7.83;;;5.40;;
19436;SDS011;9854;50.968;4.168;2022-12-07T13:59:01;9.10;;;5.27;;
19436;SDS011;9854;50.968;4.168;2022-12-07T14:01:28;7.90;;;4.87;;
19436;SDS011;9854;50.968;4.168;2022-12-07T14:03:56;5.70;;;4.00;;
19436;SDS011;9854;50.968;4.168;2022-12-07T14:06:56;10.03;;;5.47;;
19436;SDS011;9854;50.968;4.168;2022-12-07T14:09:23;9.90;;;4.77;;
19436;SDS011;9854;50.968;4.168;2022-12-07T14:11:51;6.53;;;3.53;;
19436;SDS011;9854;50.968;4.168;2022-12-07T14:14:20;6.37;;;4.53;;
19436;SDS011;9854;50.968;4.168;2022-12-07T14:19:47;5.60;;;4.13;;
19436;SDS011;9854;50.968;4.168;2022-12-07T14:22:35;9.83;;;5.90;;
19436;SDS011;9854;50.968;4.168;2022-12-07T14:27:38;7.20;;;5.70;;
19436;SDS011;9854;50.968;4.168;2022-12-07T14:30:05;7.83;;;6.13;;
19436;SDS011;9854;50.968;4.168;2022-12-07T14:32:31;6.70;;;3.90;;
19436;SDS011;9854;50.968;4.168;2022-12-07T14:35:00;8.50;;;4.77;;
19436;SDS011;9854;50.968;4.168;2022-12-07T14:37:32;6.50;;;4.27;;
19436;SDS011;9854;50.968;4.168;2022-12-07T14:39:58;6.90;;;4.93;;
19436;SDS011;9854;50.968;4.168;2022-12-07T14:42:24;5.80;;;4.40;;
19436;SDS011;9854;50.968;4.168;2022-12-07T14:44:53;9.00;;;4.07;;
19436;SDS011;9854;50.968;4.168;2022-12-07T14:47:18;5.07;;;3.80;;
19436;SDS011;9854;50.968;4.168;2022-12-07T14:49:44;5.13;;;3.60;;
19436;SDS011;9854;50.968;4.168;2022-12-07T14:52:12;4.90;;;3.57;;
19436;SDS011;9854;50.968;4.168;2022-12-07T14:54:40;5.43;;;3.67;;
19436;SDS011;9854;50.968;4.168;2022-12-07T14:57:08;8.80;;;4.30;;
19436;SDS011;9854;50.968;4.168;2022-12-07T14:59:35;5.60;;;4.20;;
19436;SDS011;9854;50.968;4.168;2022-12-07T15:02:00;6.60;;;5.03;;
19436;SDS011;9854;50.968;4.168;2022-12-07T15:04:26;8.97;;;5.53;;
19436;SDS011;9854;50.968;4.168;2022-12-07T15:06:58;6.73;;;4.97;;
19436;SDS011;9854;50.968;4.168;2022-12-07T15:09:25;6.93;;;4.67;;
19436;SDS011;9854;50.968;4.168;2022-12-07T15:11:51;9.17;;;4.53;;
19436;SDS011;9854;50.968;4.168;2022-12-07T15:14:16;7.80;;;4.83;;
19436;SDS011;9854;50.968;4.168;2022-12-07T15:16:42;6.27;;;3.70;;
19436;SDS011;9854;50.968;4.168;2022-12-07T15:19:26;6.27;;;3.80;;
19436;SDS011;9854;50.968;4.168;2022-12-07T15:21:52;19.57;;;11.77;;
19436;SDS011;9854;50.968;4.168;2022-12-07T15:24:18;40.47;;;19.93;;
19436;SDS011;9854;50.968;4.168;2022-12-07T15:26:44;56.67;;;24.17;;
19436;SDS011;9854;50.968;4.168;2022-12-07T15:29:10;77.10;;;36.53;;
19436;SDS011;9854;50.968;4.168;2022-12-07T15:31:36;64.73;;;29.73;;
19436;SDS011;9854;50.968;4.168;2022-12-07T15:34:02;71.23;;;32.77;;
19436;SDS011;9854;50.968;4.168;2022-12-07T15:36:30;53.37;;;28.90;;
19436;SDS011;9854;50.968;4.168;2022-12-07T15:38:57;4.13;;;3.10;;
19436;SDS011;9854;50.968;4.168;2022-12-07T15:41:23;26.73;;;14.00;;
19436;SDS011;9854;50.968;4.168;2022-12-07T15:43:49;19.50;;;9.77;;
19436;SDS011;9854;50.968;4.168;2022-12-07T15:46:34;36.30;;;15.57;;
19436;SDS011;9854;50.968;4.168;2022-12-07T15:49:02;18.20;;;8.70;;
19436;SDS011;9854;50.968;4.168;2022-12-07T15:51:29;13.20;;;10.57;;
19436;SDS011;9854;50.968;4.168;2022-12-07T15:53:55;13.53;;;7.87;;
19436;SDS011;9854;50.968;4.168;2022-12-07T15:56:22;11.33;;;7.27;;
19436;SDS011;9854;50.968;4.168;2022-12-07T15:58:48;10.37;;;6.00;;
19436;SDS011;9854;50.968;4.168;2022-12-07T16:01:15;13.43;;;6.50;;
19436;SDS011;9854;50.968;4.168;2022-12-07T16:03:42;8.73;;;4.63;;
19436;SDS011;9854;50.968;4.168;2022-12-07T16:06:09;8.73;;;5.60;;
19436;SDS011;9854;50.968;4.168;2022-12-07T16:08:35;8.43;;;4.90;;
19436;SDS011;9854;50.968;4.168;2022-12-07T16:11:04;9.60;;;6.50;;
19436;SDS011;9854;50.968;4.168;2022-12-07T16:13:30;12.65;;;9.75;;
19436;SDS011;9854;50.968;4.168;2022-12-07T16:15:56;15.33;;;10.13;;
19436;SDS011;9854;50.968;4.168;2022-12-07T16:18:22;9.37;;;8.43;;
19436;SDS011;9854;50.968;4.168;2022-12-07T16:20:48;11.33;;;8.23;;
19436;SDS011;9854;50.968;4.168;2022-12-07T16:23:14;16.63;;;11.83;;
19436;SDS011;9854;50.968;4.168;2022-12-07T16:25:40;19.83;;;14.20;;
19436;SDS011;9854;50.968;4.168;2022-12-07T16:28:06;28.40;;;22.57;;
19436;SDS011;9854;50.968;4.168;2022-12-07T16:30:32;21.17;;;16.97;;
19436;SDS011;9854;50.968;4.168;2022-12-07T16:32:58;21.33;;;14.93;;
19436;SDS011;9854;50.968;4.168;2022-12-07T16:35:24;17.33;;;14.60;;
19436;SDS011;9854;50.968;4.168;2022-12-07T16:37:49;20.00;;;8.33;;
19436;SDS011;9854;50.968;4.168;2022-12-07T16:40:15;14.63;;;11.97;;
19436;SDS011;9854;50.968;4.168;2022-12-07T16:42:41;15.77;;;11.47;;
19436;SDS011;9854;50.968;4.168;2022-12-07T16:45:06;18.23;;;11.90;;
19436;SDS011;9854;50.968;4.168;2022-12-07T16:47:32;14.47;;;11.03;;
19436;SDS011;9854;50.968;4.168;2022-12-07T16:49:58;15.93;;;10.73;;
19436;SDS011;9854;50.968;4.168;2022-12-07T16:52:24;14.17;;;9.60;;
19436;SDS011;9854;50.968;4.168;2022-12-07T16:54:49;18.40;;;10.77;;
19436;SDS011;9854;50.968;4.168;2022-12-07T16:57:15;17.00;;;9.73;;
19436;SDS011;9854;50.968;4.168;2022-12-07T16:59:42;14.87;;;9.70;;
19436;SDS011;9854;50.968;4.168;2022-12-07T17:02:09;17.23;;;10.30;;
19436;SDS011;9854;50.968;4.168;2022-12-07T17:04:36;15.63;;;9.27;;
19436;SDS011;9854;50.968;4.168;2022-12-07T17:07:04;16.93;;;10.10;;